Aeroporto :







RITROVATECI SU...

 
LOGIN :

Iscrizione | Disclaimer

   EN    FR    IT 

 









Sommario :    VFR   VFR Marginale   IFR   IFR Intensivo   IFR Molto Intensivo
Visibilità : 
Base nubi : 
>= 8 km
>= 3000ft
5 / 8 km
1000 / 3000 ft
1500m / 5 km
500 / 1000 ft
800 / 1500m
200 / 500 ft
< 800m
< 200 ft
Simboli :   Temporali  Nebbia  Neve Forte  Precipitazioni Forti  Vento > 20 kt







- Altitudine del aeroporto : 90 ft
- Codice IATA : YHU


CYHU - Montréal Saint-Hubert

ULTIMO METAR :
  • 170000Z AUTO 30007KT 9SM CLR 18/07 A3005 RMK SLP178 DENSITY ALT 200FT

METARs OBSOLETI :
  • 162300Z AUTO 30008KT 9SM CLR 19/07 A3004 RMK SLP173 DENSITY ALT 400FT
  • 162200Z AUTO 29009KT 9SM SCT065 20/07 A3002 RMK SLP169 DENSITY ALT 600FT

TAF TAF CYHU
Valido dal 17 a 00 ore il 18 a 00 ore UTC


162338Z 1700/1724 30008KT P6SM FEW060
FM171200 34006KT P6SM SCT020
FM171600 36006KT P6SM BKN040
BECMG 1721/1723 VRB03KT RMK FCST BASED ON AUTO OBS. NXT FCST BY 170600Z
Nessun NOTAM noto per questo aeroporto.



MetMap, La meteo Aeronautica in un colpo d'occhio ! - Copyright ORBIFLY Dicembre 2007 - Disclaimer

ORBIFLY MET'MAP TEAM :

Programmazione e sviluppo : Alexandra Zaïnal
Concezione e sviluppo : Baudouin d'Aumeries
Co-Programmazione e sviluppo : Marc-Olivier Méhu
Supporto tecnico e logistico : Manuel Goepfert
Aiuto per la traduzione : Arnaldo La Scala

Contatto : metmap@orbifly.com




FONTI E CREDITI :

   NOAA